sensor_id;sensor_type;location;lat;lon;timestamp;P1;durP1;ratioP1;P2;durP2;ratioP2
7340;SDS011;6870;50.944;6.932;2023-11-19T00:01:16;8.90;;;5.40;;
7340;SDS011;6870;50.944;6.932;2023-11-19T00:03:44;7.73;;;5.73;;
7340;SDS011;6870;50.944;6.932;2023-11-19T00:06:15;6.80;;;5.37;;
7340;SDS011;6870;50.944;6.932;2023-11-19T00:08:43;7.10;;;5.53;;
7340;SDS011;6870;50.944;6.932;2023-11-19T00:11:13;7.60;;;5.90;;
7340;SDS011;6870;50.944;6.932;2023-11-19T00:13:42;9.07;;;6.17;;
7340;SDS011;6870;50.944;6.932;2023-11-19T00:16:10;6.53;;;5.40;;
7340;SDS011;6870;50.944;6.932;2023-11-19T00:18:38;8.33;;;5.40;;
7340;SDS011;6870;50.944;6.932;2023-11-19T00:21:06;6.10;;;5.47;;
7340;SDS011;6870;50.944;6.932;2023-11-19T00:23:36;6.10;;;5.27;;
7340;SDS011;6870;50.944;6.932;2023-11-19T00:26:04;6.13;;;5.20;;
7340;SDS011;6870;50.944;6.932;2023-11-19T00:28:34;6.20;;;4.77;;
7340;SDS011;6870;50.944;6.932;2023-11-19T00:31:04;8.50;;;5.37;;
7340;SDS011;6870;50.944;6.932;2023-11-19T00:33:33;6.43;;;5.60;;
7340;SDS011;6870;50.944;6.932;2023-11-19T00:36:01;5.97;;;5.10;;
7340;SDS011;6870;50.944;6.932;2023-11-19T00:38:29;5.83;;;5.00;;
7340;SDS011;6870;50.944;6.932;2023-11-19T00:40:58;5.87;;;5.27;;
7340;SDS011;6870;50.944;6.932;2023-11-19T00:43:26;6.87;;;5.50;;
7340;SDS011;6870;50.944;6.932;2023-11-19T00:45:55;6.13;;;5.23;;
7340;SDS011;6870;50.944;6.932;2023-11-19T00:48:23;6.00;;;5.03;;
7340;SDS011;6870;50.944;6.932;2023-11-19T00:50:53;5.50;;;4.83;;
7340;SDS011;6870;50.944;6.932;2023-11-19T00:53:21;5.50;;;4.50;;
7340;SDS011;6870;50.944;6.932;2023-11-19T00:55:49;9.53;;;5.03;;
7340;SDS011;6870;50.944;6.932;2023-11-19T00:58:17;6.27;;;5.10;;
7340;SDS011;6870;50.944;6.932;2023-11-19T01:00:45;7.97;;;5.57;;
7340;SDS011;6870;50.944;6.932;2023-11-19T01:03:15;5.73;;;4.67;;
7340;SDS011;6870;50.944;6.932;2023-11-19T01:05:43;8.03;;;5.03;;
7340;SDS011;6870;50.944;6.932;2023-11-19T01:08:13;6.30;;;4.80;;
7340;SDS011;6870;50.944;6.932;2023-11-19T01:10:42;5.37;;;4.83;;
7340;SDS011;6870;50.944;6.932;2023-11-19T01:13:10;4.70;;;4.20;;
7340;SDS011;6870;50.944;6.932;2023-11-19T01:15:38;4.70;;;4.10;;
7340;SDS011;6870;50.944;6.932;2023-11-19T01:18:07;6.37;;;4.67;;
7340;SDS011;6870;50.944;6.932;2023-11-19T01:20:38;5.73;;;4.77;;
7340;SDS011;6870;50.944;6.932;2023-11-19T01:23:06;7.87;;;5.30;;
7340;SDS011;6870;50.944;6.932;2023-11-19T01:25:34;8.83;;;4.90;;
7340;SDS011;6870;50.944;6.932;2023-11-19T01:28:03;4.40;;;4.00;;
7340;SDS011;6870;50.944;6.932;2023-11-19T01:30:31;5.83;;;5.13;;
7340;SDS011;6870;50.944;6.932;2023-11-19T01:32:59;5.60;;;4.10;;
7340;SDS011;6870;50.944;6.932;2023-11-19T01:35:27;5.57;;;4.23;;
7340;SDS011;6870;50.944;6.932;2023-11-19T01:37:57;4.57;;;4.00;;
7340;SDS011;6870;50.944;6.932;2023-11-19T01:40:25;6.33;;;4.57;;
7340;SDS011;6870;50.944;6.932;2023-11-19T01:42:53;5.50;;;5.00;;
7340;SDS011;6870;50.944;6.932;2023-11-19T01:45:22;6.37;;;4.30;;
7340;SDS011;6870;50.944;6.932;2023-11-19T01:47:57;6.60;;;5.23;;
7340;SDS011;6870;50.944;6.932;2023-11-19T01:50:27;5.17;;;4.07;;
7340;SDS011;6870;50.944;6.932;2023-11-19T01:52:57;5.03;;;3.93;;
7340;SDS011;6870;50.944;6.932;2023-11-19T01:55:25;6.70;;;5.30;;
7340;SDS011;6870;50.944;6.932;2023-11-19T01:57:55;5.40;;;4.20;;
7340;SDS011;6870;50.944;6.932;2023-11-19T02:00:28;6.87;;;4.23;;
7340;SDS011;6870;50.944;6.932;2023-11-19T02:02:59;5.70;;;4.97;;
7340;SDS011;6870;50.944;6.932;2023-11-19T02:05:28;4.33;;;3.60;;
7340;SDS011;6870;50.944;6.932;2023-11-19T02:08:00;7.20;;;4.70;;
7340;SDS011;6870;50.944;6.932;2023-11-19T02:10:28;7.00;;;3.70;;
7340;SDS011;6870;50.944;6.932;2023-11-19T02:12:56;4.47;;;3.83;;
7340;SDS011;6870;50.944;6.932;2023-11-19T02:15:32;6.63;;;4.03;;
7340;SDS011;6870;50.944;6.932;2023-11-19T02:18:19;4.53;;;3.80;;
7340;SDS011;6870;50.944;6.932;2023-11-19T02:20:48;5.30;;;4.37;;
7340;SDS011;6870;50.944;6.932;2023-11-19T02:23:18;5.40;;;3.83;;
7340;SDS011;6870;50.944;6.932;2023-11-19T02:26:03;5.00;;;3.77;;
7340;SDS011;6870;50.944;6.932;2023-11-19T02:28:42;5.70;;;4.10;;
7340;SDS011;6870;50.944;6.932;2023-11-19T02:31:10;4.50;;;3.87;;
7340;SDS011;6870;50.944;6.932;2023-11-19T02:33:39;6.07;;;4.43;;
7340;SDS011;6870;50.944;6.932;2023-11-19T02:36:08;5.33;;;4.00;;
7340;SDS011;6870;50.944;6.932;2023-11-19T02:38:37;5.37;;;4.10;;
7340;SDS011;6870;50.944;6.932;2023-11-19T02:41:05;6.70;;;4.43;;
7340;SDS011;6870;50.944;6.932;2023-11-19T02:43:34;5.50;;;4.17;;
7340;SDS011;6870;50.944;6.932;2023-11-19T02:46:06;4.83;;;4.33;;
7340;SDS011;6870;50.944;6.932;2023-11-19T02:48:37;5.27;;;3.63;;
7340;SDS011;6870;50.944;6.932;2023-11-19T02:51:06;4.40;;;4.00;;
7340;SDS011;6870;50.944;6.932;2023-11-19T02:53:35;5.83;;;4.30;;
7340;SDS011;6870;50.944;6.932;2023-11-19T02:56:04;5.87;;;3.60;;
7340;SDS011;6870;50.944;6.932;2023-11-19T02:58:42;4.77;;;3.67;;
7340;SDS011;6870;50.944;6.932;2023-11-19T03:01:13;4.03;;;3.60;;
7340;SDS011;6870;50.944;6.932;2023-11-19T03:03:56;5.30;;;3.87;;
7340;SDS011;6870;50.944;6.932;2023-11-19T03:06:25;5.80;;;3.80;;
7340;SDS011;6870;50.944;6.932;2023-11-19T03:08:55;4.10;;;3.37;;
7340;SDS011;6870;50.944;6.932;2023-11-19T03:11:23;3.90;;;3.50;;
7340;SDS011;6870;50.944;6.932;2023-11-19T03:13:51;4.70;;;3.33;;
7340;SDS011;6870;50.944;6.932;2023-11-19T03:16:21;6.00;;;4.23;;
7340;SDS011;6870;50.944;6.932;2023-11-19T03:18:49;5.10;;;3.40;;
7340;SDS011;6870;50.944;6.932;2023-11-19T03:21:17;3.47;;;2.90;;
7340;SDS011;6870;50.944;6.932;2023-11-19T03:23:45;4.20;;;3.03;;
7340;SDS011;6870;50.944;6.932;2023-11-19T03:26:13;4.67;;;3.30;;
7340;SDS011;6870;50.944;6.932;2023-11-19T03:28:41;4.93;;;3.57;;
7340;SDS011;6870;50.944;6.932;2023-11-19T03:31:09;7.63;;;4.03;;
7340;SDS011;6870;50.944;6.932;2023-11-19T03:33:38;3.83;;;3.10;;
7340;SDS011;6870;50.944;6.932;2023-11-19T03:36:07;4.30;;;3.20;;
7340;SDS011;6870;50.944;6.932;2023-11-19T03:38:36;4.40;;;3.43;;
7340;SDS011;6870;50.944;6.932;2023-11-19T03:41:09;4.03;;;2.90;;
7340;SDS011;6870;50.944;6.932;2023-11-19T03:43:38;3.70;;;2.80;;
7340;SDS011;6870;50.944;6.932;2023-11-19T03:46:15;4.83;;;3.13;;
7340;SDS011;6870;50.944;6.932;2023-11-19T03:48:46;4.23;;;2.97;;
7340;SDS011;6870;50.944;6.932;2023-11-19T03:51:16;7.93;;;3.93;;
7340;SDS011;6870;50.944;6.932;2023-11-19T03:53:44;3.97;;;3.00;;
7340;SDS011;6870;50.944;6.932;2023-11-19T03:56:13;4.40;;;3.43;;
7340;SDS011;6870;50.944;6.932;2023-11-19T03:58:41;6.50;;;3.87;;
7340;SDS011;6870;50.944;6.932;2023-11-19T04:01:10;4.53;;;3.60;;
7340;SDS011;6870;50.944;6.932;2023-11-19T04:03:40;3.80;;;3.17;;
7340;SDS011;6870;50.944;6.932;2023-11-19T04:06:12;3.47;;;3.17;;
7340;SDS011;6870;50.944;6.932;2023-11-19T04:08:40;3.23;;;2.90;;
7340;SDS011;6870;50.944;6.932;2023-11-19T04:11:08;4.53;;;3.23;;
7340;SDS011;6870;50.944;6.932;2023-11-19T04:13:36;6.03;;;3.87;;
7340;SDS011;6870;50.944;6.932;2023-11-19T04:16:04;4.10;;;3.67;;
7340;SDS011;6870;50.944;6.932;2023-11-19T04:18:33;4.50;;;3.60;;
7340;SDS011;6870;50.944;6.932;2023-11-19T04:21:02;3.90;;;2.77;;
7340;SDS011;6870;50.944;6.932;2023-11-19T04:23:35;4.50;;;3.00;;
7340;SDS011;6870;50.944;6.932;2023-11-19T04:26:03;3.77;;;3.00;;
7340;SDS011;6870;50.944;6.932;2023-11-19T04:28:36;5.10;;;2.83;;
7340;SDS011;6870;50.944;6.932;2023-11-19T04:31:04;3.57;;;3.03;;
7340;SDS011;6870;50.944;6.932;2023-11-19T04:33:33;4.00;;;2.90;;
7340;SDS011;6870;50.944;6.932;2023-11-19T04:36:01;3.37;;;2.57;;
7340;SDS011;6870;50.944;6.932;2023-11-19T04:38:29;3.80;;;3.00;;
7340;SDS011;6870;50.944;6.932;2023-11-19T04:40:59;3.40;;;2.93;;
7340;SDS011;6870;50.944;6.932;2023-11-19T04:43:27;5.20;;;3.60;;
7340;SDS011;6870;50.944;6.932;2023-11-19T04:45:55;3.90;;;2.93;;
7340;SDS011;6870;50.944;6.932;2023-11-19T04:48:23;4.90;;;3.03;;
7340;SDS011;6870;50.944;6.932;2023-11-19T04:50:52;3.70;;;2.97;;
7340;SDS011;6870;50.944;6.932;2023-11-19T04:53:21;3.60;;;2.87;;
7340;SDS011;6870;50.944;6.932;2023-11-19T04:55:49;3.57;;;2.63;;
7340;SDS011;6870;50.944;6.932;2023-11-19T04:58:19;4.07;;;3.03;;
7340;SDS011;6870;50.944;6.932;2023-11-19T05:00:47;3.17;;;2.60;;
7340;SDS011;6870;50.944;6.932;2023-11-19T05:03:15;3.00;;;2.40;;
7340;SDS011;6870;50.944;6.932;2023-11-19T05:05:44;3.87;;;2.87;;
7340;SDS011;6870;50.944;6.932;2023-11-19T05:08:12;3.90;;;2.70;;
7340;SDS011;6870;50.944;6.932;2023-11-19T05:10:40;4.10;;;2.80;;
7340;SDS011;6870;50.944;6.932;2023-11-19T05:13:08;3.53;;;2.77;;
7340;SDS011;6870;50.944;6.932;2023-11-19T05:15:37;3.90;;;2.63;;
7340;SDS011;6870;50.944;6.932;2023-11-19T05:18:05;3.70;;;2.83;;
7340;SDS011;6870;50.944;6.932;2023-11-19T05:20:35;3.70;;;2.80;;
7340;SDS011;6870;50.944;6.932;2023-11-19T05:23:03;4.60;;;2.77;;
7340;SDS011;6870;50.944;6.932;2023-11-19T05:25:31;3.30;;;2.67;;
7340;SDS011;6870;50.944;6.932;2023-11-19T05:27:59;2.80;;;1.93;;
7340;SDS011;6870;50.944;6.932;2023-11-19T05:30:27;6.37;;;2.47;;
7340;SDS011;6870;50.944;6.932;2023-11-19T05:32:56;5.60;;;2.57;;
7340;SDS011;6870;50.944;6.932;2023-11-19T05:35:24;2.90;;;2.20;;
7340;SDS011;6870;50.944;6.932;2023-11-19T05:37:52;3.90;;;2.27;;
7340;SDS011;6870;50.944;6.932;2023-11-19T05:40:22;3.40;;;2.57;;
7340;SDS011;6870;50.944;6.932;2023-11-19T05:42:50;3.87;;;2.60;;
7340;SDS011;6870;50.944;6.932;2023-11-19T05:45:18;3.10;;;2.20;;
7340;SDS011;6870;50.944;6.932;2023-11-19T05:47:46;2.40;;;2.13;;
7340;SDS011;6870;50.944;6.932;2023-11-19T05:50:15;2.80;;;2.50;;
7340;SDS011;6870;50.944;6.932;2023-11-19T05:52:43;3.20;;;2.40;;
7340;SDS011;6870;50.944;6.932;2023-11-19T05:55:10;5.27;;;2.67;;
7340;SDS011;6870;50.944;6.932;2023-11-19T05:57:40;4.03;;;2.50;;
7340;SDS011;6870;50.944;6.932;2023-11-19T06:00:11;4.50;;;2.83;;
7340;SDS011;6870;50.944;6.932;2023-11-19T06:02:41;4.97;;;2.53;;
7340;SDS011;6870;50.944;6.932;2023-11-19T06:05:09;3.10;;;2.57;;
7340;SDS011;6870;50.944;6.932;2023-11-19T06:07:39;26.63;;;5.30;;
7340;SDS011;6870;50.944;6.932;2023-11-19T06:10:08;9.83;;;3.53;;
7340;SDS011;6870;50.944;6.932;2023-11-19T06:12:37;8.90;;;3.30;;
7340;SDS011;6870;50.944;6.932;2023-11-19T06:15:07;10.23;;;3.30;;
7340;SDS011;6870;50.944;6.932;2023-11-19T06:17:36;8.57;;;4.10;;
7340;SDS011;6870;50.944;6.932;2023-11-19T06:20:05;15.57;;;3.47;;
7340;SDS011;6870;50.944;6.932;2023-11-19T06:22:34;7.83;;;3.90;;
7340;SDS011;6870;50.944;6.932;2023-11-19T06:25:04;14.90;;;3.50;;
7340;SDS011;6870;50.944;6.932;2023-11-19T06:27:34;9.17;;;3.20;;
7340;SDS011;6870;50.944;6.932;2023-11-19T06:30:02;10.53;;;3.77;;
7340;SDS011;6870;50.944;6.932;2023-11-19T06:32:31;13.23;;;3.87;;
7340;SDS011;6870;50.944;6.932;2023-11-19T06:35:00;14.30;;;4.20;;
7340;SDS011;6870;50.944;6.932;2023-11-19T06:37:28;14.90;;;3.90;;
7340;SDS011;6870;50.944;6.932;2023-11-19T06:39:56;6.40;;;3.20;;
7340;SDS011;6870;50.944;6.932;2023-11-19T06:42:25;13.93;;;3.43;;
7340;SDS011;6870;50.944;6.932;2023-11-19T06:44:53;11.53;;;3.77;;
7340;SDS011;6870;50.944;6.932;2023-11-19T06:47:25;10.07;;;3.83;;
7340;SDS011;6870;50.944;6.932;2023-11-19T06:49:54;9.00;;;3.60;;
7340;SDS011;6870;50.944;6.932;2023-11-19T06:52:22;7.10;;;3.30;;
7340;SDS011;6870;50.944;6.932;2023-11-19T06:54:50;10.50;;;3.23;;
7340;SDS011;6870;50.944;6.932;2023-11-19T06:57:18;6.63;;;2.97;;
7340;SDS011;6870;50.944;6.932;2023-11-19T06:59:48;6.50;;;3.37;;
7340;SDS011;6870;50.944;6.932;2023-11-19T07:02:16;9.40;;;3.20;;
7340;SDS011;6870;50.944;6.932;2023-11-19T07:04:44;13.07;;;3.60;;
7340;SDS011;6870;50.944;6.932;2023-11-19T07:07:12;9.10;;;2.83;;
7340;SDS011;6870;50.944;6.932;2023-11-19T07:09:41;8.57;;;3.33;;
7340;SDS011;6870;50.944;6.932;2023-11-19T07:12:09;10.20;;;2.83;;
7340;SDS011;6870;50.944;6.932;2023-11-19T07:14:39;7.57;;;3.30;;
7340;SDS011;6870;50.944;6.932;2023-11-19T07:17:09;15.87;;;2.40;;
7340;SDS011;6870;50.944;6.932;2023-11-19T07:19:38;5.30;;;2.97;;
7340;SDS011;6870;50.944;6.932;2023-11-19T07:22:06;5.00;;;2.30;;
7340;SDS011;6870;50.944;6.932;2023-11-19T07:24:34;4.17;;;2.73;;
7340;SDS011;6870;50.944;6.932;2023-11-19T07:27:02;10.33;;;2.97;;
7340;SDS011;6870;50.944;6.932;2023-11-19T07:29:30;9.10;;;3.50;;
7340;SDS011;6870;50.944;6.932;2023-11-19T07:31:58;8.23;;;2.77;;
7340;SDS011;6870;50.944;6.932;2023-11-19T07:34:29;6.53;;;3.17;;
7340;SDS011;6870;50.944;6.932;2023-11-19T07:36:57;4.70;;;2.37;;
7340;SDS011;6870;50.944;6.932;2023-11-19T07:39:28;10.63;;;3.57;;
7340;SDS011;6870;50.944;6.932;2023-11-19T07:41:57;9.13;;;2.60;;
7340;SDS011;6870;50.944;6.932;2023-11-19T07:44:25;6.60;;;2.90;;
7340;SDS011;6870;50.944;6.932;2023-11-19T07:46:53;9.23;;;2.60;;
7340;SDS011;6870;50.944;6.932;2023-11-19T07:49:21;7.80;;;2.80;;
7340;SDS011;6870;50.944;6.932;2023-11-19T07:51:50;8.10;;;3.03;;
7340;SDS011;6870;50.944;6.932;2023-11-19T07:54:19;17.13;;;3.43;;
7340;SDS011;6870;50.944;6.932;2023-11-19T07:56:48;8.70;;;2.80;;
7340;SDS011;6870;50.944;6.932;2023-11-19T07:59:17;9.63;;;3.20;;
7340;SDS011;6870;50.944;6.932;2023-11-19T08:01:45;7.20;;;2.70;;
7340;SDS011;6870;50.944;6.932;2023-11-19T08:04:13;5.00;;;2.17;;
7340;SDS011;6870;50.944;6.932;2023-11-19T08:06:41;6.63;;;2.70;;
7340;SDS011;6870;50.944;6.932;2023-11-19T08:09:11;9.53;;;2.67;;
7340;SDS011;6870;50.944;6.932;2023-11-19T08:11:40;16.17;;;3.57;;
7340;SDS011;6870;50.944;6.932;2023-11-19T08:14:09;8.37;;;3.20;;
7340;SDS011;6870;50.944;6.932;2023-11-19T08:16:38;8.30;;;3.27;;
7340;SDS011;6870;50.944;6.932;2023-11-19T08:19:06;5.87;;;2.63;;
7340;SDS011;6870;50.944;6.932;2023-11-19T08:21:35;6.23;;;2.77;;
7340;SDS011;6870;50.944;6.932;2023-11-19T08:24:03;6.43;;;2.77;;
7340;SDS011;6870;50.944;6.932;2023-11-19T08:26:33;12.13;;;3.50;;
7340;SDS011;6870;50.944;6.932;2023-11-19T08:29:01;6.50;;;3.23;;
7340;SDS011;6870;50.944;6.932;2023-11-19T08:31:30;9.90;;;3.50;;
7340;SDS011;6870;50.944;6.932;2023-11-19T08:33:58;9.97;;;2.90;;
7340;SDS011;6870;50.944;6.932;2023-11-19T08:36:26;8.00;;;2.87;;
7340;SDS011;6870;50.944;6.932;2023-11-19T08:38:54;9.20;;;2.97;;
7340;SDS011;6870;50.944;6.932;2023-11-19T08:41:22;9.97;;;2.90;;
7340;SDS011;6870;50.944;6.932;2023-11-19T08:43:51;8.23;;;3.37;;
7340;SDS011;6870;50.944;6.932;2023-11-19T08:46:19;10.17;;;3.27;;
7340;SDS011;6870;50.944;6.932;2023-11-19T08:48:47;8.20;;;2.57;;
7340;SDS011;6870;50.944;6.932;2023-11-19T08:51:15;9.37;;;2.97;;
7340;SDS011;6870;50.944;6.932;2023-11-19T08:53:43;11.10;;;3.43;;
7340;SDS011;6870;50.944;6.932;2023-11-19T08:56:12;9.73;;;3.30;;
7340;SDS011;6870;50.944;6.932;2023-11-19T08:58:40;10.50;;;3.13;;
7340;SDS011;6870;50.944;6.932;2023-11-19T09:01:10;8.37;;;2.50;;
7340;SDS011;6870;50.944;6.932;2023-11-19T09:03:38;11.17;;;3.30;;
7340;SDS011;6870;50.944;6.932;2023-11-19T09:06:06;13.00;;;3.30;;
7340;SDS011;6870;50.944;6.932;2023-11-19T09:08:35;13.83;;;3.50;;
7340;SDS011;6870;50.944;6.932;2023-11-19T09:11:06;10.33;;;2.93;;
7340;SDS011;6870;50.944;6.932;2023-11-19T09:13:35;8.60;;;3.53;;
7340;SDS011;6870;50.944;6.932;2023-11-19T09:16:04;10.60;;;3.33;;
7340;SDS011;6870;50.944;6.932;2023-11-19T09:18:34;7.20;;;2.80;;
7340;SDS011;6870;50.944;6.932;2023-11-19T09:21:02;9.03;;;2.80;;
7340;SDS011;6870;50.944;6.932;2023-11-19T09:23:31;8.93;;;3.37;;
7340;SDS011;6870;50.944;6.932;2023-11-19T09:26:03;32.97;;;4.00;;
7340;SDS011;6870;50.944;6.932;2023-11-19T09:28:31;12.70;;;3.37;;
7340;SDS011;6870;50.944;6.932;2023-11-19T09:31:00;11.40;;;3.60;;
7340;SDS011;6870;50.944;6.932;2023-11-19T09:33:30;9.53;;;3.33;;
7340;SDS011;6870;50.944;6.932;2023-11-19T09:36:02;9.43;;;3.47;;
7340;SDS011;6870;50.944;6.932;2023-11-19T09:38:31;11.40;;;3.00;;
7340;SDS011;6870;50.944;6.932;2023-11-19T09:40:59;8.43;;;3.13;;
7340;SDS011;6870;50.944;6.932;2023-11-19T09:43:28;8.97;;;3.33;;
7340;SDS011;6870;50.944;6.932;2023-11-19T09:45:56;13.33;;;3.90;;
7340;SDS011;6870;50.944;6.932;2023-11-19T09:48:32;13.33;;;3.93;;
7340;SDS011;6870;50.944;6.932;2023-11-19T09:51:01;11.40;;;3.20;;
7340;SDS011;6870;50.944;6.932;2023-11-19T09:53:32;11.37;;;4.07;;
7340;SDS011;6870;50.944;6.932;2023-11-19T09:56:00;9.63;;;3.47;;
7340;SDS011;6870;50.944;6.932;2023-11-19T09:58:30;8.13;;;3.03;;
7340;SDS011;6870;50.944;6.932;2023-11-19T10:00:59;7.83;;;3.40;;
7340;SDS011;6870;50.944;6.932;2023-11-19T10:03:48;13.50;;;3.87;;
7340;SDS011;6870;50.944;6.932;2023-11-19T10:06:21;8.23;;;3.27;;
7340;SDS011;6870;50.944;6.932;2023-11-19T10:08:53;9.20;;;2.73;;
7340;SDS011;6870;50.944;6.932;2023-11-19T10:11:22;10.37;;;2.97;;
7340;SDS011;6870;50.944;6.932;2023-11-19T10:13:51;11.03;;;3.50;;
7340;SDS011;6870;50.944;6.932;2023-11-19T10:16:24;11.10;;;3.07;;
7340;SDS011;6870;50.944;6.932;2023-11-19T10:18:57;8.57;;;2.33;;
7340;SDS011;6870;50.944;6.932;2023-11-19T10:21:26;9.07;;;3.03;;
7340;SDS011;6870;50.944;6.932;2023-11-19T10:23:55;16.07;;;3.90;;
7340;SDS011;6870;50.944;6.932;2023-11-19T10:26:26;9.97;;;3.77;;
7340;SDS011;6870;50.944;6.932;2023-11-19T10:28:55;12.10;;;4.53;;
7340;SDS011;6870;50.944;6.932;2023-11-19T10:31:23;12.03;;;3.63;;
7340;SDS011;6870;50.944;6.932;2023-11-19T10:33:53;12.53;;;3.70;;
7340;SDS011;6870;50.944;6.932;2023-11-19T10:36:21;10.20;;;2.90;;
7340;SDS011;6870;50.944;6.932;2023-11-19T10:38:55;18.07;;;4.00;;
7340;SDS011;6870;50.944;6.932;2023-11-19T10:41:27;9.10;;;3.43;;
7340;SDS011;6870;50.944;6.932;2023-11-19T10:43:56;13.40;;;3.70;;
7340;SDS011;6870;50.944;6.932;2023-11-19T10:46:35;14.60;;;3.90;;
7340;SDS011;6870;50.944;6.932;2023-11-19T10:49:06;9.33;;;3.60;;
7340;SDS011;6870;50.944;6.932;2023-11-19T10:51:34;13.00;;;3.30;;
7340;SDS011;6870;50.944;6.932;2023-11-19T10:54:05;14.47;;;3.20;;
7340;SDS011;6870;50.944;6.932;2023-11-19T10:56:33;8.80;;;2.80;;
7340;SDS011;6870;50.944;6.932;2023-11-19T10:59:02;11.83;;;3.37;;
7340;SDS011;6870;50.944;6.932;2023-11-19T11:01:49;17.33;;;3.83;;
7340;SDS011;6870;50.944;6.932;2023-11-19T11:04:23;7.33;;;3.07;;
7340;SDS011;6870;50.944;6.932;2023-11-19T11:06:53;15.13;;;3.63;;
7340;SDS011;6870;50.944;6.932;2023-11-19T11:09:26;12.50;;;3.53;;
7340;SDS011;6870;50.944;6.932;2023-11-19T11:11:55;8.97;;;2.90;;
7340;SDS011;6870;50.944;6.932;2023-11-19T11:14:24;13.87;;;2.83;;
7340;SDS011;6870;50.944;6.932;2023-11-19T11:16:54;9.87;;;3.20;;
7340;SDS011;6870;50.944;6.932;2023-11-19T11:19:25;28.70;;;3.70;;
7340;SDS011;6870;50.944;6.932;2023-11-19T11:21:54;7.80;;;3.07;;
7340;SDS011;6870;50.944;6.932;2023-11-19T11:24:28;7.20;;;2.60;;
7340;SDS011;6870;50.944;6.932;2023-11-19T11:27:20;8.03;;;3.03;;
7340;SDS011;6870;50.944;6.932;2023-11-19T11:30:25;7.47;;;3.07;;
7340;SDS011;6870;50.944;6.932;2023-11-19T11:33:06;9.23;;;3.00;;
7340;SDS011;6870;50.944;6.932;2023-11-19T11:35:55;7.77;;;2.70;;
7340;SDS011;6870;50.944;6.932;2023-11-19T11:38:36;6.40;;;2.20;;
7340;SDS011;6870;50.944;6.932;2023-11-19T11:41:22;8.23;;;2.93;;
7340;SDS011;6870;50.944;6.932;2023-11-19T11:43:55;5.60;;;2.13;;
7340;SDS011;6870;50.944;6.932;2023-11-19T11:49:24;6.30;;;2.13;;
7340;SDS011;6870;50.944;6.932;2023-11-19T11:52:00;5.13;;;2.50;;
7340;SDS011;6870;50.944;6.932;2023-11-19T11:54:30;8.60;;;3.23;;
7340;SDS011;6870;50.944;6.932;2023-11-19T11:59:47;8.57;;;2.80;;
7340;SDS011;6870;50.944;6.932;2023-11-19T12:02:17;6.60;;;2.53;;
7340;SDS011;6870;50.944;6.932;2023-11-19T12:04:55;6.60;;;3.13;;
7340;SDS011;6870;50.944;6.932;2023-11-19T12:07:24;6.53;;;2.60;;
7340;SDS011;6870;50.944;6.932;2023-11-19T12:09:53;11.20;;;3.20;;
7340;SDS011;6870;50.944;6.932;2023-11-19T12:12:36;5.80;;;2.70;;
7340;SDS011;6870;50.944;6.932;2023-11-19T12:15:07;4.33;;;2.10;;
7340;SDS011;6870;50.944;6.932;2023-11-19T12:17:41;2.87;;;1.67;;
7340;SDS011;6870;50.944;6.932;2023-11-19T12:20:15;5.97;;;2.27;;
7340;SDS011;6870;50.944;6.932;2023-11-19T12:23:00;5.67;;;2.20;;
7340;SDS011;6870;50.944;6.932;2023-11-19T12:25:34;6.80;;;2.43;;
7340;SDS011;6870;50.944;6.932;2023-11-19T12:28:04;8.90;;;3.13;;
7340;SDS011;6870;50.944;6.932;2023-11-19T12:30:32;4.80;;;2.40;;
7340;SDS011;6870;50.944;6.932;2023-11-19T12:33:07;6.63;;;2.87;;
7340;SDS011;6870;50.944;6.932;2023-11-19T12:35:38;5.90;;;1.63;;
7340;SDS011;6870;50.944;6.932;2023-11-19T12:38:06;7.13;;;2.17;;
7340;SDS011;6870;50.944;6.932;2023-11-19T12:40:35;7.63;;;1.80;;
7340;SDS011;6870;50.944;6.932;2023-11-19T12:43:04;6.67;;;2.50;;
7340;SDS011;6870;50.944;6.932;2023-11-19T12:45:35;4.50;;;2.27;;
7340;SDS011;6870;50.944;6.932;2023-11-19T12:48:04;8.20;;;2.33;;
7340;SDS011;6870;50.944;6.932;2023-11-19T12:53:20;6.47;;;2.83;;
7340;SDS011;6870;50.944;6.932;2023-11-19T12:55:49;9.53;;;2.13;;
7340;SDS011;6870;50.944;6.932;2023-11-19T12:58:31;5.50;;;2.20;;
7340;SDS011;6870;50.944;6.932;2023-11-19T13:01:03;3.43;;;1.50;;
7340;SDS011;6870;50.944;6.932;2023-11-19T13:03:33;6.30;;;2.27;;
7340;SDS011;6870;50.944;6.932;2023-11-19T13:06:06;7.60;;;2.43;;
7340;SDS011;6870;50.944;6.932;2023-11-19T13:08:37;8.47;;;2.37;;
7340;SDS011;6870;50.944;6.932;2023-11-19T13:11:06;7.57;;;2.30;;
7340;SDS011;6870;50.944;6.932;2023-11-19T13:13:56;5.20;;;2.33;;
7340;SDS011;6870;50.944;6.932;2023-11-19T13:16:27;4.80;;;2.00;;
7340;SDS011;6870;50.944;6.932;2023-11-19T13:18:55;6.30;;;3.00;;
7340;SDS011;6870;50.944;6.932;2023-11-19T13:21:25;6.77;;;2.00;;
7340;SDS011;6870;50.944;6.932;2023-11-19T13:23:53;6.37;;;2.30;;
7340;SDS011;6870;50.944;6.932;2023-11-19T13:26:21;5.27;;;2.23;;
7340;SDS011;6870;50.944;6.932;2023-11-19T13:28:50;8.10;;;2.33;;
7340;SDS011;6870;50.944;6.932;2023-11-19T13:31:19;4.90;;;2.37;;
7340;SDS011;6870;50.944;6.932;2023-11-19T13:33:48;5.17;;;1.50;;
7340;SDS011;6870;50.944;6.932;2023-11-19T13:36:16;4.57;;;2.30;;
7340;SDS011;6870;50.944;6.932;2023-11-19T13:38:45;6.87;;;2.33;;
7340;SDS011;6870;50.944;6.932;2023-11-19T13:41:13;4.90;;;2.40;;
7340;SDS011;6870;50.944;6.932;2023-11-19T13:43:41;4.67;;;2.10;;
7340;SDS011;6870;50.944;6.932;2023-11-19T13:46:10;3.90;;;1.40;;
7340;SDS011;6870;50.944;6.932;2023-11-19T13:48:40;7.80;;;2.17;;
7340;SDS011;6870;50.944;6.932;2023-11-19T13:51:08;3.67;;;2.00;;
7340;SDS011;6870;50.944;6.932;2023-11-19T13:53:36;5.60;;;2.10;;
7340;SDS011;6870;50.944;6.932;2023-11-19T13:56:08;3.67;;;1.60;;
7340;SDS011;6870;50.944;6.932;2023-11-19T13:58:36;3.27;;;1.80;;
7340;SDS011;6870;50.944;6.932;2023-11-19T14:01:04;2.90;;;1.67;;
7340;SDS011;6870;50.944;6.932;2023-11-19T14:03:33;5.33;;;1.90;;
7340;SDS011;6870;50.944;6.932;2023-11-19T14:06:03;4.17;;;2.40;;
7340;SDS011;6870;50.944;6.932;2023-11-19T14:08:32;6.37;;;2.30;;
7340;SDS011;6870;50.944;6.932;2023-11-19T14:11:00;4.17;;;1.93;;
7340;SDS011;6870;50.944;6.932;2023-11-19T14:13:29;4.03;;;1.70;;
7340;SDS011;6870;50.944;6.932;2023-11-19T14:15:57;5.20;;;1.73;;
7340;SDS011;6870;50.944;6.932;2023-11-19T14:18:25;4.90;;;1.43;;
7340;SDS011;6870;50.944;6.932;2023-11-19T14:20:53;4.73;;;2.20;;
7340;SDS011;6870;50.944;6.932;2023-11-19T14:23:23;4.77;;;1.90;;
7340;SDS011;6870;50.944;6.932;2023-11-19T14:25:52;4.83;;;1.70;;
7340;SDS011;6870;50.944;6.932;2023-11-19T14:28:20;4.00;;;1.70;;
7340;SDS011;6870;50.944;6.932;2023-11-19T14:30:48;5.33;;;2.00;;
7340;SDS011;6870;50.944;6.932;2023-11-19T14:33:23;7.33;;;2.20;;
7340;SDS011;6870;50.944;6.932;2023-11-19T14:35:51;4.13;;;1.63;;
7340;SDS011;6870;50.944;6.932;2023-11-19T14:38:19;2.90;;;1.73;;
7340;SDS011;6870;50.944;6.932;2023-11-19T14:40:48;5.43;;;2.20;;
7340;SDS011;6870;50.944;6.932;2023-11-19T14:43:16;4.03;;;1.70;;
7340;SDS011;6870;50.944;6.932;2023-11-19T14:45:44;5.07;;;1.57;;
7340;SDS011;6870;50.944;6.932;2023-11-19T14:48:16;4.63;;;1.97;;
7340;SDS011;6870;50.944;6.932;2023-11-19T14:50:44;6.70;;;2.00;;
7340;SDS011;6870;50.944;6.932;2023-11-19T14:53:13;5.97;;;1.87;;
7340;SDS011;6870;50.944;6.932;2023-11-19T14:55:41;5.70;;;1.73;;
7340;SDS011;6870;50.944;6.932;2023-11-19T14:58:10;2.87;;;1.70;;
7340;SDS011;6870;50.944;6.932;2023-11-19T15:00:42;3.70;;;1.50;;
7340;SDS011;6870;50.944;6.932;2023-11-19T15:03:12;4.33;;;1.50;;
7340;SDS011;6870;50.944;6.932;2023-11-19T15:05:42;9.77;;;2.30;;
7340;SDS011;6870;50.944;6.932;2023-11-19T15:08:12;4.10;;;1.70;;
7340;SDS011;6870;50.944;6.932;2023-11-19T15:10:42;5.40;;;2.17;;
7340;SDS011;6870;50.944;6.932;2023-11-19T15:13:12;9.37;;;1.77;;
7340;SDS011;6870;50.944;6.932;2023-11-19T15:15:40;5.03;;;1.70;;
7340;SDS011;6870;50.944;6.932;2023-11-19T15:18:08;5.67;;;1.87;;
7340;SDS011;6870;50.944;6.932;2023-11-19T15:20:37;4.60;;;1.60;;
7340;SDS011;6870;50.944;6.932;2023-11-19T15:23:05;5.70;;;1.77;;
7340;SDS011;6870;50.944;6.932;2023-11-19T15:25:35;4.40;;;1.83;;
7340;SDS011;6870;50.944;6.932;2023-11-19T15:28:04;3.10;;;1.80;;
7340;SDS011;6870;50.944;6.932;2023-11-19T15:30:33;4.20;;;1.67;;
7340;SDS011;6870;50.944;6.932;2023-11-19T15:33:01;6.67;;;1.73;;
7340;SDS011;6870;50.944;6.932;2023-11-19T15:35:29;3.00;;;1.63;;
7340;SDS011;6870;50.944;6.932;2023-11-19T15:37:57;2.70;;;1.30;;